createdAt,value
2022-08-24T00:00:29.697Z,100432.95
2022-08-24T00:03:12.040Z,100437.17
2022-08-24T00:05:44.463Z,100457.06
2022-08-24T00:08:19.099Z,100471.85
2022-08-24T00:10:51.261Z,100483.71
2022-08-24T00:13:23.951Z,100493.03
2022-08-24T00:16:00.943Z,100508.52
2022-08-24T00:18:33.600Z,100514.05
2022-08-24T00:21:06.262Z,100524.55
2022-08-24T00:23:38.804Z,100538.65
2022-08-24T00:26:12.420Z,100545.05
2022-08-24T00:28:44.992Z,100547.27
2022-08-24T00:31:19.743Z,100550.13
2022-08-24T00:33:51.979Z,100548.91
2022-08-24T00:36:24.937Z,100549.41
2022-08-24T00:38:57.634Z,100547.63
2022-08-24T00:41:30.167Z,100550.52
2022-08-24T00:44:06.011Z,100556.19
2022-08-24T00:46:45.602Z,100558.94
2022-08-24T00:49:27.016Z,100558.00
2022-08-24T00:52:06.776Z,100549.84
2022-08-24T00:54:46.238Z,100548.95
2022-08-24T00:57:23.730Z,100555.27
2022-08-24T01:00:00.384Z,100551.67
2022-08-24T01:02:37.138Z,100547.28
2022-08-24T01:05:12.408Z,100545.64
2022-08-24T01:07:45.282Z,100545.20
2022-08-24T01:10:21.043Z,100545.45
2022-08-24T01:13:01.100Z,100539.44
2022-08-24T01:15:37.619Z,100536.82
2022-08-24T01:18:30.590Z,100537.88
2022-08-24T01:21:08.433Z,100541.66
2022-08-24T01:23:44.473Z,100539.46
2022-08-24T01:26:21.351Z,100537.35
2022-08-24T01:28:57.268Z,100536.19
2022-08-24T01:31:29.729Z,100531.96
2022-08-24T01:34:02.453Z,100528.47
2022-08-24T01:36:40.556Z,100534.11
2022-08-24T01:39:16.176Z,100537.84
2022-08-24T01:41:48.781Z,100541.19
2022-08-24T01:44:22.575Z,100539.90
2022-08-24T01:46:57.069Z,100533.79
2022-08-24T01:49:32.399Z,100533.53
2022-08-24T01:52:06.567Z,100535.23
2022-08-24T01:54:39.164Z,100539.46
2022-08-24T01:57:17.195Z,100537.63
2022-08-24T01:59:49.600Z,100532.66
2022-08-24T02:02:26.567Z,100537.17
2022-08-24T02:04:59.352Z,100538.91
2022-08-24T02:07:33.132Z,100537.83
2022-08-24T02:10:06.516Z,100544.50
2022-08-24T02:12:40.535Z,100549.75
2022-08-24T02:15:14.359Z,100557.30
2022-08-24T02:17:46.516Z,100560.95
2022-08-24T02:20:19.170Z,100555.79
2022-08-24T02:22:51.928Z,100553.86
2022-08-24T02:25:25.469Z,100558.35
2022-08-24T02:27:58.248Z,100553.47
2022-08-24T02:30:31.700Z,100549.88
2022-08-24T02:33:04.498Z,100546.09
2022-08-24T02:35:38.063Z,100554.14
2022-08-24T02:38:10.330Z,100555.10
2022-08-24T02:40:42.495Z,100548.64
2022-08-24T02:43:14.836Z,100545.33
2022-08-24T02:45:50.369Z,100541.73
2022-08-24T02:48:23.186Z,100538.84
2022-08-24T02:50:55.559Z,100541.92
2022-08-24T02:53:27.766Z,100547.00
2022-08-24T02:55:59.910Z,100541.90
2022-08-24T02:58:32.167Z,100542.31
2022-08-24T03:01:04.444Z,100544.69
2022-08-24T03:03:47.021Z,100548.30
2022-08-24T03:06:19.359Z,100552.69
2022-08-24T03:08:56.626Z,100552.90
2022-08-24T03:11:29.279Z,100563.43
2022-08-24T03:14:02.192Z,100566.92
2022-08-24T03:16:34.535Z,100564.01
2022-08-24T03:19:06.761Z,100562.48
2022-08-24T03:21:38.936Z,100557.14
2022-08-24T03:24:11.223Z,100552.19
2022-08-24T03:26:44.549Z,100550.13
2022-08-24T03:29:17.322Z,100551.30
2022-08-24T03:31:49.989Z,100546.89
2022-08-24T03:34:22.151Z,100538.02
2022-08-24T03:36:54.342Z,100533.95
2022-08-24T03:39:26.524Z,100530.59
2022-08-24T03:41:58.961Z,100530.92
2022-08-24T03:44:31.171Z,100528.09
2022-08-24T03:47:03.339Z,100529.66
2022-08-24T03:49:35.500Z,100522.50
2022-08-24T03:52:08.931Z,100522.73
2022-08-24T03:54:41.296Z,100521.24
2022-08-24T03:57:13.899Z,100520.38
2022-08-24T03:59:46.582Z,100526.46
2022-08-24T04:02:19.951Z,100531.13
2022-08-24T04:04:52.166Z,100538.02
2022-08-24T04:07:24.782Z,100535.89
2022-08-24T04:09:56.947Z,100545.42
2022-08-24T04:12:29.248Z,100543.34
2022-08-24T04:15:01.747Z,100543.98
2022-08-24T04:17:34.324Z,100548.70
2022-08-24T04:20:09.076Z,100543.27
2022-08-24T04:22:41.725Z,100539.30
2022-08-24T04:25:14.980Z,100544.70
2022-08-24T04:27:47.295Z,100538.88
2022-08-24T04:30:19.661Z,100534.38
2022-08-24T04:32:51.972Z,100540.79
2022-08-24T04:35:24.120Z,100537.38
2022-08-24T04:37:56.369Z,100540.95
2022-08-24T04:40:28.723Z,100540.77
2022-08-24T04:43:01.823Z,100542.88
2022-08-24T04:45:34.635Z,100541.25
2022-08-24T04:48:07.995Z,100539.73
2022-08-24T04:50:42.847Z,100540.95
2022-08-24T04:53:16.133Z,100537.77
2022-08-24T04:55:51.295Z,100534.59
2022-08-24T04:58:23.531Z,100531.14
2022-08-24T05:00:55.817Z,100528.11
2022-08-24T05:03:28.598Z,100529.91
2022-08-24T05:06:00.884Z,100526.45
2022-08-24T05:08:33.906Z,100524.52
2022-08-24T05:11:08.484Z,100526.83
2022-08-24T05:13:41.092Z,100526.88
2022-08-24T05:16:16.289Z,100523.00
2022-08-24T05:18:48.915Z,100517.54
2022-08-24T05:21:24.320Z,100515.04
2022-08-24T05:23:55.164Z,100518.89
2022-08-24T05:26:28.927Z,100516.89
2022-08-24T05:29:03.404Z,100518.17
2022-08-24T05:31:36.048Z,100522.50
2022-08-24T05:34:08.308Z,100515.63
2022-08-24T05:36:41.795Z,100515.52
2022-08-24T05:39:16.028Z,100520.02
2022-08-24T05:41:49.852Z,100516.90
2022-08-24T05:44:22.058Z,100513.64
2022-08-24T05:46:55.919Z,100507.27
2022-08-24T05:49:28.609Z,100510.17
2022-08-24T05:52:02.310Z,100507.89
2022-08-24T05:54:34.523Z,100507.18
2022-08-24T05:57:07.135Z,100510.59
2022-08-24T05:59:40.968Z,100506.42
2022-08-24T06:02:13.375Z,100510.09
2022-08-24T06:04:45.770Z,100506.38
2022-08-24T06:07:19.162Z,100506.15
2022-08-24T06:09:54.242Z,100507.96
2022-08-24T06:12:26.722Z,100506.48
2022-08-24T06:14:59.232Z,100507.44
2022-08-24T06:17:31.801Z,100510.48
2022-08-24T06:20:04.456Z,100505.61
2022-08-24T06:22:36.693Z,100509.15
2022-08-24T06:25:27.440Z,100505.31
2022-08-24T06:27:59.741Z,100508.08
2022-08-24T06:30:32.451Z,100510.08
2022-08-24T06:33:06.056Z,100512.17
2022-08-24T06:35:38.310Z,100516.32
2022-08-24T06:38:11.003Z,100519.17
2022-08-24T06:40:44.148Z,100517.42
2022-08-24T06:43:16.372Z,100517.55
2022-08-24T06:45:48.868Z,100511.50
2022-08-24T06:48:21.487Z,100514.67
2022-08-24T06:50:53.991Z,100517.13
2022-08-24T06:53:26.288Z,100522.73
2022-08-24T06:56:00.145Z,100523.08
2022-08-24T06:58:32.644Z,100523.73
2022-08-24T07:01:13.456Z,100524.14
2022-08-24T07:03:46.312Z,100525.42
2022-08-24T07:06:19.452Z,100527.41
2022-08-24T07:08:52.671Z,100525.59
2022-08-24T07:11:25.695Z,100522.69
2022-08-24T07:13:57.850Z,100531.82
2022-08-24T07:16:31.137Z,100529.81
2022-08-24T07:19:04.338Z,100531.73
2022-08-24T07:21:37.023Z,100533.75
2022-08-24T07:24:10.821Z,100536.05
2022-08-24T07:26:44.599Z,100538.49
2022-08-24T07:29:45.918Z,100539.90
2022-08-24T07:32:10.374Z,100540.52
2022-08-24T07:34:42.580Z,100544.23
2022-08-24T07:37:14.992Z,100548.65
2022-08-24T07:39:47.630Z,100544.42
2022-08-24T07:42:29.479Z,100541.31
2022-08-24T07:45:03.726Z,100538.10
2022-08-24T07:47:41.057Z,100544.36
2022-08-24T07:50:15.505Z,100549.76
2022-08-24T07:52:48.440Z,100553.67
2022-08-24T07:55:20.872Z,100550.08
2022-08-24T07:57:53.302Z,100547.65
2022-08-24T08:00:25.949Z,100545.30
2022-08-24T08:02:58.269Z,100546.22
2022-08-24T08:05:30.504Z,100543.16
2022-08-24T08:08:02.843Z,100546.62
2022-08-24T08:10:36.296Z,100541.13
2022-08-24T08:13:10.076Z,100543.95
2022-08-24T08:15:43.618Z,100534.23
2022-08-24T08:18:16.931Z,100533.59
2022-08-24T08:20:50.195Z,100534.71
2022-08-24T08:23:40.968Z,100536.73
2022-08-24T08:26:20.368Z,100532.10
2022-08-24T08:28:52.609Z,100530.99
2022-08-24T08:31:24.874Z,100526.09
2022-08-24T08:33:59.832Z,100521.07
2022-08-24T08:36:32.504Z,100516.67
2022-08-24T08:39:05.186Z,100524.85
2022-08-24T08:42:06.910Z,100520.64
2022-08-24T08:45:00.174Z,100520.54
2022-08-24T08:47:57.982Z,100522.02
2022-08-24T08:50:35.372Z,100523.23
2022-08-24T08:53:35.400Z,100525.32
2022-08-24T08:56:18.085Z,100524.21
2022-08-24T08:59:01.685Z,100521.52
2022-08-24T09:01:47.511Z,100523.85
2022-08-24T09:04:45.949Z,100520.71
2022-08-24T09:07:27.976Z,100519.05
2022-08-24T09:10:32.808Z,100522.73
2022-08-24T09:13:17.526Z,100527.34
2022-08-24T09:16:12.228Z,100532.40
2022-08-24T09:18:55.827Z,100533.66
2022-08-24T09:21:49.772Z,100524.00
2022-08-24T09:24:45.640Z,100530.30
2022-08-24T09:27:28.850Z,100528.34
2022-08-24T09:30:11.518Z,100532.27
2022-08-24T09:33:03.724Z,100534.23
2022-08-24T09:36:00.145Z,100536.86
2022-08-24T09:38:51.336Z,100536.05
2022-08-24T09:41:49.340Z,100528.87
2022-08-24T09:44:46.397Z,100525.25
2022-08-24T09:47:44.466Z,100526.77
2022-08-24T09:51:11.494Z,100522.17
2022-08-24T09:54:14.283Z,100522.88
2022-08-24T09:57:12.003Z,100516.19
2022-08-24T10:00:11.150Z,100515.14
2022-08-24T10:03:08.478Z,100511.20
2022-08-24T10:06:01.051Z,100511.88
2022-08-24T10:08:42.370Z,100508.79
2022-08-24T10:11:25.144Z,100506.34
2022-08-24T10:14:08.448Z,100504.16
2022-08-24T10:16:46.197Z,100501.13
2022-08-24T10:19:53.185Z,100498.48
2022-08-24T10:22:53.019Z,100502.80
2022-08-24T10:25:37.308Z,100502.16
2022-08-24T10:28:34.636Z,100501.21
2022-08-24T10:31:12.680Z,100496.54
2022-08-24T10:34:00.564Z,100490.02
2022-08-24T10:36:51.071Z,100486.09
2022-08-24T10:39:56.825Z,100487.15
2022-08-24T10:43:10.442Z,100487.18
2022-08-24T10:46:30.472Z,100490.92
2022-08-24T10:49:39.660Z,100489.40
2022-08-24T10:52:46.850Z,100498.38
2022-08-24T10:55:24.969Z,100497.55
2022-08-24T10:58:14.739Z,100494.42
2022-08-24T11:00:47.749Z,100497.80
2022-08-24T11:03:27.923Z,100492.36
2022-08-24T11:06:01.108Z,100490.55
2022-08-24T11:08:34.640Z,100487.91
2022-08-24T11:11:11.313Z,100487.09
2022-08-24T11:13:54.664Z,100487.94
2022-08-24T11:16:31.192Z,100479.44
2022-08-24T11:19:05.741Z,100480.45
2022-08-24T11:21:48.387Z,100477.61
2022-08-24T11:24:39.576Z,100472.96
2022-08-24T11:27:26.573Z,100467.47
2022-08-24T11:30:02.640Z,100457.02
2022-08-24T11:32:40.763Z,100455.11
2022-08-24T11:35:23.907Z,100451.67
2022-08-24T11:37:59.350Z,100448.75
2022-08-24T11:40:35.910Z,100446.44
2022-08-24T11:43:28.150Z,100440.44
2022-08-24T11:46:14.198Z,100440.45
2022-08-24T11:48:57.084Z,100437.27
2022-08-24T11:51:41.780Z,100437.73
2022-08-24T11:54:25.343Z,100433.00
2022-08-24T11:57:09.318Z,100431.95
2022-08-24T11:59:49.731Z,100426.66
2022-08-24T12:02:29.966Z,100420.85
2022-08-24T12:05:09.132Z,100422.75
2022-08-24T12:07:53.151Z,100420.91
2022-08-24T12:10:38.589Z,100427.25
2022-08-24T12:13:12.379Z,100425.52
2022-08-24T12:15:52.724Z,100420.89
2022-08-24T12:18:31.863Z,100418.31
2022-08-24T12:21:04.219Z,100410.38
2022-08-24T12:23:41.183Z,100410.05
2022-08-24T12:26:22.391Z,100405.19
2022-08-24T12:28:57.904Z,100402.94
2022-08-24T12:31:41.076Z,100406.55
2022-08-24T12:34:19.648Z,100408.44
2022-08-24T12:37:01.771Z,100408.05
2022-08-24T12:39:43.642Z,100409.19
2022-08-24T12:42:23.520Z,100402.92
2022-08-24T12:45:00.236Z,100400.35
2022-08-24T12:47:39.557Z,100395.95
2022-08-24T12:50:17.537Z,100394.65
2022-08-24T12:53:12.141Z,100393.02
2022-08-24T12:56:06.932Z,100393.52
2022-08-24T12:59:01.032Z,100392.01
2022-08-24T13:01:37.334Z,100401.48
2022-08-24T13:04:17.048Z,100397.17
2022-08-24T13:07:00.729Z,100394.96
2022-08-24T13:09:37.121Z,100395.67
2022-08-24T13:12:39.681Z,100396.77
2022-08-24T13:15:50.135Z,100402.73
2022-08-24T13:18:53.278Z,100404.80
2022-08-24T13:21:46.015Z,100401.39
2022-08-24T13:24:45.591Z,100398.65
2022-08-24T13:28:02.409Z,100396.20
2022-08-24T13:30:55.547Z,100396.80
2022-08-24T13:33:35.036Z,100396.59
2022-08-24T13:36:29.943Z,100394.23
2022-08-24T13:39:12.560Z,100395.25
2022-08-24T13:41:55.251Z,100394.54
2022-08-24T13:44:38.879Z,100395.28
2022-08-24T13:47:18.110Z,100398.71
2022-08-24T13:50:03.619Z,100402.89
2022-08-24T13:52:46.291Z,100400.57
2022-08-24T13:55:43.907Z,100405.50
2022-08-24T13:58:36.545Z,100404.23
2022-08-24T14:01:26.044Z,100403.83
2022-08-24T14:04:30.374Z,100402.01
2022-08-24T14:07:10.946Z,100402.60
2022-08-24T14:09:59.725Z,100405.27
2022-08-24T14:13:00.210Z,100407.99
2022-08-24T14:15:49.970Z,100404.70
2022-08-24T14:18:35.960Z,100404.73
2022-08-24T14:21:17.921Z,100404.43
2022-08-24T14:23:59.355Z,100404.84
2022-08-24T14:27:04.508Z,100406.48
2022-08-24T14:29:40.764Z,100404.31
2022-08-24T14:32:40.960Z,100405.04
2022-08-24T14:35:37.427Z,100409.19
2022-08-24T14:38:28.233Z,100403.62
2022-08-24T14:41:19.944Z,100406.67
2022-08-24T14:44:11.470Z,100404.63
2022-08-24T14:46:51.562Z,100402.84
2022-08-24T14:49:30.318Z,100399.60
2022-08-24T14:52:22.299Z,100396.15
2022-08-24T14:55:11.856Z,100395.00
2022-08-24T14:58:00.854Z,100391.81
2022-08-24T15:00:57.690Z,100387.50
2022-08-24T15:03:54.796Z,100391.89
2022-08-24T15:06:35.605Z,100389.46
2022-08-24T15:09:18.832Z,100389.41
2022-08-24T15:11:52.796Z,100386.62
2022-08-24T15:14:48.835Z,100381.58
2022-08-24T15:17:31.347Z,100378.20
2022-08-24T15:20:08.943Z,100379.89
2022-08-24T15:22:51.676Z,100375.70
2022-08-24T15:25:40.703Z,100368.73
2022-08-24T15:28:16.213Z,100370.16
2022-08-24T15:30:58.770Z,100366.95
2022-08-24T15:33:39.536Z,100363.18
2022-08-24T15:36:18.772Z,100367.30
2022-08-24T15:38:51.244Z,100367.08
2022-08-24T15:41:28.861Z,100369.49
2022-08-24T15:44:05.282Z,100373.07
2022-08-24T15:46:40.595Z,100378.16
2022-08-24T15:49:18.878Z,100376.85
2022-08-24T15:51:54.836Z,100381.30
2022-08-24T15:54:41.103Z,100377.80
2022-08-24T15:57:27.595Z,100371.83
2022-08-24T16:00:13.513Z,100370.04
2022-08-24T16:02:45.911Z,100370.09
2022-08-24T16:05:37.624Z,100364.56
2022-08-24T16:08:15.459Z,100358.81
2022-08-24T16:10:50.034Z,100360.45
2022-08-24T16:13:33.702Z,100361.52
2022-08-24T16:16:09.381Z,100364.64
2022-08-24T16:18:52.250Z,100361.30
2022-08-24T16:21:33.875Z,100362.07
2022-08-24T16:24:12.233Z,100358.20
2022-08-24T16:27:05.673Z,100361.88
2022-08-24T16:29:56.057Z,100360.41
2022-08-24T16:32:50.277Z,100356.70
2022-08-24T16:35:25.985Z,100362.95
2022-08-24T16:37:58.271Z,100368.98
2022-08-24T16:40:34.642Z,100370.27
2022-08-24T16:43:06.947Z,100373.13
2022-08-24T16:45:39.217Z,100374.95
2022-08-24T16:48:11.446Z,100373.70
2022-08-24T16:50:46.179Z,100375.08
2022-08-24T16:53:20.528Z,100374.91
2022-08-24T16:55:52.837Z,100376.77
2022-08-24T16:58:30.981Z,100381.70
2022-08-24T17:01:03.974Z,100384.46
2022-08-24T17:03:36.242Z,100385.95
2022-08-24T17:06:12.371Z,100384.42
2022-08-24T17:08:44.697Z,100387.89
2022-08-24T17:11:17.820Z,100388.65
2022-08-24T17:13:50.848Z,100392.70
2022-08-24T17:16:24.024Z,100396.22
2022-08-24T17:18:58.782Z,100394.09
2022-08-24T17:21:30.998Z,100402.10
2022-08-24T17:24:03.612Z,100408.16
2022-08-24T17:26:36.494Z,100407.08
2022-08-24T17:29:13.228Z,100406.36
2022-08-24T17:31:51.044Z,100410.05
2022-08-24T17:34:24.938Z,100410.65
2022-08-24T17:36:58.107Z,100408.95
2022-08-24T17:39:30.679Z,100412.13
2022-08-24T17:42:03.685Z,100415.14
2022-08-24T17:44:37.099Z,100413.48
2022-08-24T17:47:09.924Z,100418.31
2022-08-24T17:49:42.507Z,100421.96
2022-08-24T17:52:15.291Z,100425.73
2022-08-24T17:54:47.496Z,100431.43
2022-08-24T17:57:22.090Z,100431.31
2022-08-24T17:59:54.297Z,100433.77
2022-08-24T18:02:26.785Z,100433.36
2022-08-24T18:04:59.071Z,100436.25
2022-08-24T18:07:51.977Z,100437.17
2022-08-24T18:10:26.177Z,100443.11
2022-08-24T18:12:59.468Z,100445.98
2022-08-24T18:15:35.928Z,100446.63
2022-08-24T18:18:10.303Z,100448.91
2022-08-24T18:20:43.604Z,100451.41
2022-08-24T18:23:21.289Z,100458.16
2022-08-24T18:25:56.892Z,100453.19
2022-08-24T18:28:29.140Z,100459.02
2022-08-24T18:31:01.471Z,100457.75
2022-08-24T18:33:33.672Z,100458.72
2022-08-24T18:36:08.359Z,100456.14
2022-08-24T18:38:40.669Z,100454.32
2022-08-24T18:41:13.793Z,100460.75
2022-08-24T18:43:46.264Z,100459.70
2022-08-24T18:46:19.482Z,100461.67
2022-08-24T18:48:51.751Z,100465.59
2022-08-24T18:51:24.510Z,100466.30
2022-08-24T18:54:10.403Z,100468.68
2022-08-24T18:56:42.674Z,100466.70
2022-08-24T18:59:16.572Z,100472.81
2022-08-24T19:02:23.842Z,100469.73
2022-08-24T19:04:56.554Z,100473.06
2022-08-24T19:07:30.056Z,100473.29
2022-08-24T19:10:03.169Z,100474.70
2022-08-24T19:12:38.592Z,100472.33
2022-08-24T19:15:31.989Z,100474.39
2022-08-24T19:18:05.700Z,100480.92
2022-08-24T19:20:39.178Z,100482.38
2022-08-24T19:23:14.879Z,100486.02
2022-08-24T19:25:47.716Z,100488.47
2022-08-24T19:28:21.625Z,100486.92
2022-08-24T19:30:57.691Z,100492.73
2022-08-24T19:33:33.307Z,100495.45
2022-08-24T19:36:06.339Z,100489.46
2022-08-24T19:38:38.507Z,100494.53
2022-08-24T19:41:12.926Z,100500.30
2022-08-24T19:44:05.051Z,100501.27
2022-08-24T19:46:37.326Z,100505.45
2022-08-24T19:49:09.927Z,100501.39
2022-08-24T19:51:42.192Z,100500.61
2022-08-24T19:54:14.420Z,100498.08
2022-08-24T19:56:46.847Z,100502.27
2022-08-24T19:59:27.156Z,100504.63
2022-08-24T20:01:59.391Z,100506.46
2022-08-24T20:04:31.675Z,100505.89
2022-08-24T20:07:03.904Z,100504.40
2022-08-24T20:09:36.145Z,100504.03
2022-08-24T20:12:09.339Z,100506.61
2022-08-24T20:14:41.546Z,100504.73
2022-08-24T20:17:13.853Z,100505.13
2022-08-24T20:19:46.408Z,100506.08
2022-08-24T20:22:18.926Z,100508.39
2022-08-24T20:24:53.443Z,100507.05
2022-08-24T20:27:28.958Z,100510.80
2022-08-24T20:30:02.816Z,100504.65
2022-08-24T20:32:35.122Z,100505.44
2022-08-24T20:35:08.502Z,100508.98
2022-08-24T20:37:43.891Z,100510.33
2022-08-24T20:40:19.664Z,100510.13
2022-08-24T20:42:51.887Z,100505.34
2022-08-24T20:45:23.980Z,100507.20
2022-08-24T20:47:56.878Z,100510.45
2022-08-24T20:50:31.760Z,100508.73
2022-08-24T20:53:04.043Z,100512.52
2022-08-24T20:55:36.456Z,100510.91
2022-08-24T20:58:08.995Z,100515.02
2022-08-24T21:00:44.515Z,100513.16
2022-08-24T21:03:18.852Z,100512.36
2022-08-24T21:05:52.645Z,100509.13
2022-08-24T21:08:25.987Z,100508.05
2022-08-24T21:10:58.877Z,100504.25
2022-08-24T21:13:31.275Z,100507.15
2022-08-24T21:16:03.647Z,100500.99
2022-08-24T21:18:37.310Z,100502.55
2022-08-24T21:21:10.217Z,100500.96
2022-08-24T21:23:42.613Z,100501.27
2022-08-24T21:26:16.574Z,100499.98
2022-08-24T21:28:49.658Z,100495.09
2022-08-24T21:31:22.729Z,100496.48
2022-08-24T21:34:12.582Z,100492.92
2022-08-24T21:36:45.579Z,100493.38
2022-08-24T21:39:18.834Z,100493.90
2022-08-24T21:41:52.251Z,100495.78
2022-08-24T21:44:24.579Z,100496.69
2022-08-24T21:46:58.118Z,100500.95
2022-08-24T21:49:30.643Z,100500.26
2022-08-24T21:52:03.246Z,100506.77
2022-08-24T21:54:36.246Z,100502.48
2022-08-24T21:57:09.345Z,100500.71
2022-08-24T21:59:42.203Z,100495.05
2022-08-24T22:02:16.853Z,100491.20
2022-08-24T22:04:56.789Z,100485.92
2022-08-24T22:07:29.600Z,100481.86
2022-08-24T22:10:02.176Z,100477.39
2022-08-24T22:12:35.021Z,100476.67
2022-08-24T22:15:09.760Z,100476.70
2022-08-24T22:17:42.055Z,100472.60
2022-08-24T22:20:23.140Z,100470.74
2022-08-24T22:22:56.800Z,100460.81
2022-08-24T22:25:30.208Z,100455.07
2022-08-24T22:28:02.363Z,100448.75
2022-08-24T22:30:35.491Z,100446.03
2022-08-24T22:33:09.177Z,100438.95
2022-08-24T22:35:45.167Z,100433.94
2022-08-24T22:38:17.757Z,100430.87
2022-08-24T22:40:56.495Z,100425.43
2022-08-24T22:43:51.227Z,100418.49
2022-08-24T22:46:24.022Z,100414.31
2022-08-24T22:48:56.376Z,100409.28
2022-08-24T22:51:29.228Z,100410.34
2022-08-24T22:54:02.015Z,100403.55
2022-08-24T22:56:36.718Z,100399.27
2022-08-24T22:59:11.191Z,100399.57
2022-08-24T23:01:45.542Z,100394.89
2022-08-24T23:04:20.369Z,100396.37
2022-08-24T23:06:54.144Z,100397.05
2022-08-24T23:09:26.279Z,100396.86
2022-08-24T23:11:59.787Z,100394.92
2022-08-24T23:14:32.016Z,100392.75
2022-08-24T23:17:05.430Z,100389.48
2022-08-24T23:19:55.027Z,100387.36
2022-08-24T23:22:28.556Z,100384.03
2022-08-24T23:25:01.521Z,100377.90
2022-08-24T23:27:37.979Z,100372.61
2022-08-24T23:30:15.881Z,100370.24
2022-08-24T23:32:49.107Z,100366.42
2022-08-24T23:35:21.432Z,100363.16
2022-08-24T23:37:53.707Z,100363.88
2022-08-24T23:40:25.977Z,100359.67
2022-08-24T23:42:58.327Z,100362.21
2022-08-24T23:45:31.887Z,100361.35
2022-08-24T23:48:04.496Z,100361.96
2022-08-24T23:50:37.078Z,100362.85
2022-08-24T23:53:09.298Z,100361.89
2022-08-24T23:55:41.603Z,100357.98
2022-08-24T23:58:14.239Z,100364.66
